createdAt,value
2022-10-02T00:01:19.626Z,11.90
2022-10-02T00:03:47.845Z,11.93
2022-10-02T00:06:21.904Z,11.99
2022-10-02T00:08:52.215Z,12.04
2022-10-02T00:11:24.584Z,12.09
2022-10-02T00:14:01.668Z,12.07
2022-10-02T00:16:34.820Z,12.09
2022-10-02T00:19:02.512Z,12.06
2022-10-02T00:21:37.301Z,12.13
2022-10-02T00:24:10.300Z,12.14
2022-10-02T00:26:59.762Z,12.16
2022-10-02T00:29:35.774Z,12.23
2022-10-02T00:32:30.878Z,12.21
2022-10-02T00:35:03.460Z,12.27
2022-10-02T00:37:55.653Z,12.28
2022-10-02T00:40:41.176Z,12.23
2022-10-02T00:43:35.024Z,12.19
2022-10-02T00:46:10.902Z,12.21
2022-10-02T00:48:45.087Z,12.18
2022-10-02T00:51:30.980Z,12.14
2022-10-02T00:54:09.540Z,12.13
2022-10-02T00:57:04.052Z,12.10
2022-10-02T00:59:37.857Z,12.09
2022-10-02T01:02:31.899Z,12.07
2022-10-02T01:05:02.390Z,12.05
2022-10-02T01:07:29.647Z,12.00
2022-10-02T01:09:56.382Z,11.94
2022-10-02T01:12:26.043Z,11.87
2022-10-02T01:14:57.196Z,11.79
2022-10-02T01:17:34.819Z,11.66
2022-10-02T01:20:05.215Z,11.56
2022-10-02T01:22:47.938Z,11.44
2022-10-02T01:25:15.237Z,11.41
2022-10-02T01:27:42.031Z,11.42
2022-10-02T01:30:15.844Z,11.41
2022-10-02T01:32:48.974Z,11.40
2022-10-02T01:35:16.345Z,11.42
2022-10-02T01:37:44.857Z,11.46
2022-10-02T01:40:26.824Z,11.49
2022-10-02T01:42:55.985Z,11.54
2022-10-02T01:45:35.284Z,11.52
2022-10-02T01:48:21.856Z,11.50
2022-10-02T01:51:18.542Z,11.53
2022-10-02T01:53:53.450Z,11.57
2022-10-02T01:56:36.157Z,11.60
2022-10-02T01:59:15.209Z,11.61
2022-10-02T02:01:53.126Z,11.63
2022-10-02T02:04:25.946Z,11.64
2022-10-02T02:07:35.642Z,11.62
2022-10-02T02:10:24.197Z,11.58
2022-10-02T02:13:00.598Z,11.60
2022-10-02T02:15:39.735Z,11.66
2022-10-02T02:18:18.593Z,11.68
2022-10-02T02:20:50.830Z,11.71
2022-10-02T02:23:25.909Z,11.69
2022-10-02T02:26:00.483Z,11.61
2022-10-02T02:28:30.248Z,11.56
2022-10-02T02:30:58.374Z,11.53
2022-10-02T02:33:32.101Z,11.44
2022-10-02T02:36:03.659Z,11.48
2022-10-02T02:38:39.283Z,11.52
2022-10-02T02:41:13.892Z,11.54
2022-10-02T02:43:44.593Z,11.58
2022-10-02T02:46:20.421Z,11.61
2022-10-02T02:48:55.980Z,11.65
2022-10-02T02:51:31.262Z,11.66
2022-10-02T02:54:24.105Z,11.70
2022-10-02T02:56:53.420Z,11.73
2022-10-02T02:59:23.374Z,11.74
2022-10-02T03:01:50.136Z,11.78
2022-10-02T03:04:17.177Z,11.82
2022-10-02T03:06:52.398Z,11.83
2022-10-02T03:09:21.776Z,11.84
2022-10-02T03:12:15.887Z,11.83
2022-10-02T03:14:50.210Z,11.91
2022-10-02T03:17:44.527Z,11.95
2022-10-02T03:20:24.148Z,12.04
2022-10-02T03:23:17.865Z,12.09
2022-10-02T03:25:50.503Z,12.15
2022-10-02T03:28:53.551Z,12.19
2022-10-02T03:31:15.760Z,12.18
2022-10-02T03:33:45.103Z,12.26
2022-10-02T03:36:15.095Z,12.33
2022-10-02T03:38:42.815Z,12.37
2022-10-02T03:41:09.934Z,12.43
2022-10-02T03:43:36.776Z,12.46
2022-10-02T03:46:03.525Z,12.44
2022-10-02T03:48:30.195Z,12.43
2022-10-02T03:50:56.952Z,12.45
2022-10-02T03:53:29.772Z,12.49
2022-10-02T03:56:05.292Z,12.48
2022-10-02T03:58:33.550Z,12.56
2022-10-02T04:01:28.262Z,12.56
2022-10-02T04:04:06.510Z,12.56
2022-10-02T04:06:47.448Z,12.56
2022-10-02T04:09:52.227Z,12.50
2022-10-02T04:12:24.263Z,12.54
2022-10-02T04:14:57.853Z,12.53
2022-10-02T04:17:31.716Z,12.56
2022-10-02T04:20:06.854Z,12.57
2022-10-02T04:22:39.779Z,12.55
2022-10-02T04:25:34.748Z,12.50
2022-10-02T04:28:14.209Z,12.49
2022-10-02T04:30:41.279Z,12.48
2022-10-02T04:33:18.407Z,12.48
2022-10-02T04:35:56.166Z,12.50
2022-10-02T04:38:56.742Z,12.49
2022-10-02T04:41:35.344Z,12.50
2022-10-02T04:44:04.774Z,12.49
2022-10-02T04:46:42.690Z,12.48
2022-10-02T04:49:31.397Z,12.54
2022-10-02T04:52:15.054Z,12.53
2022-10-02T04:55:08.448Z,12.56
2022-10-02T04:58:24.662Z,12.49
2022-10-02T05:04:07.034Z,12.54
2022-10-02T05:07:11.073Z,12.56
2022-10-02T05:10:04.630Z,12.62
2022-10-02T05:13:04.969Z,12.61
2022-10-02T05:15:42.343Z,12.65
2022-10-02T05:18:15.860Z,12.58
2022-10-02T05:21:09.754Z,12.63
2022-10-02T05:23:55.467Z,12.70
2022-10-02T05:26:53.159Z,12.68
2022-10-02T05:29:42.042Z,12.74
2022-10-02T05:32:43.876Z,12.71
2022-10-02T05:35:14.430Z,12.69
2022-10-02T05:38:07.384Z,12.64
2022-10-02T05:40:43.968Z,12.77
2022-10-02T05:43:44.370Z,12.80
2022-10-02T05:46:21.621Z,12.84
2022-10-02T05:49:01.784Z,12.88
2022-10-02T05:52:04.003Z,12.87
2022-10-02T05:54:47.554Z,12.88
2022-10-02T05:57:31.861Z,12.82
2022-10-02T06:00:31.334Z,12.89
2022-10-02T06:03:27.106Z,12.92
2022-10-02T06:06:07.622Z,12.95
2022-10-02T06:08:52.142Z,12.96
2022-10-02T06:11:45.425Z,12.96
2022-10-02T06:14:37.842Z,13.00
2022-10-02T06:17:15.227Z,12.97
2022-10-02T06:20:03.572Z,12.95
2022-10-02T06:22:59.120Z,12.99
2022-10-02T06:25:43.962Z,12.98
2022-10-02T06:28:36.895Z,12.98
2022-10-02T06:31:14.448Z,13.01
2022-10-02T06:33:42.322Z,13.06
2022-10-02T06:36:39.513Z,12.98
2022-10-02T06:39:42.473Z,12.98
2022-10-02T06:42:27.311Z,13.03
2022-10-02T06:45:19.850Z,13.07
2022-10-02T06:48:24.727Z,13.05
2022-10-02T06:51:26.434Z,13.13
2022-10-02T06:54:20.096Z,13.17
2022-10-02T06:57:23.136Z,13.16
2022-10-02T07:00:17.225Z,13.09
2022-10-02T07:02:55.777Z,13.12
2022-10-02T07:05:48.579Z,13.14
2022-10-02T07:08:27.136Z,13.08
2022-10-02T07:11:32.743Z,13.16
2022-10-02T07:14:34.243Z,13.18
2022-10-02T07:17:38.327Z,13.25
2022-10-02T07:20:33.620Z,13.28
2022-10-02T07:23:16.629Z,13.34
2022-10-02T07:25:56.543Z,13.42
2022-10-02T07:28:23.097Z,13.44
2022-10-02T07:31:01.599Z,13.54
2022-10-02T07:33:51.826Z,13.58
2022-10-02T07:36:44.320Z,13.56
2022-10-02T07:39:40.535Z,13.58
2022-10-02T07:42:33.013Z,13.56
2022-10-02T07:45:26.463Z,13.66
2022-10-02T07:48:08.130Z,13.69
2022-10-02T07:51:02.747Z,13.67
2022-10-02T07:53:52.476Z,13.60
2022-10-02T07:56:23.783Z,13.62
2022-10-02T07:58:57.926Z,13.61
2022-10-02T08:01:29.015Z,13.63
2022-10-02T08:04:00.945Z,13.58
2022-10-02T08:06:29.444Z,13.52
2022-10-02T08:09:02.462Z,13.57
2022-10-02T08:11:40.874Z,13.56
2022-10-02T08:14:13.035Z,13.62
2022-10-02T08:16:51.494Z,13.68
2022-10-02T08:19:27.896Z,13.68
2022-10-02T08:22:01.309Z,13.73
2022-10-02T08:24:37.765Z,13.88
2022-10-02T08:27:13.012Z,13.91
2022-10-02T08:29:45.945Z,13.94
2022-10-02T08:32:13.238Z,14.07
2022-10-02T08:34:41.647Z,14.06
2022-10-02T08:37:43.843Z,13.90
2022-10-02T08:40:50.585Z,14.03
2022-10-02T08:43:36.368Z,13.98
2022-10-02T08:46:25.520Z,13.91
2022-10-02T08:49:14.171Z,13.85
2022-10-02T08:52:18.707Z,13.83
2022-10-02T08:55:06.946Z,13.79
2022-10-02T08:57:55.501Z,13.90
2022-10-02T09:00:25.226Z,13.88
2022-10-02T09:02:57.982Z,13.83
2022-10-02T09:06:01.839Z,13.72
2022-10-02T09:08:40.773Z,13.78
2022-10-02T09:11:28.712Z,13.78
2022-10-02T09:14:14.075Z,13.81
2022-10-02T09:17:30.897Z,13.90
2022-10-02T09:20:19.635Z,13.73
2022-10-02T09:23:23.986Z,13.51
2022-10-02T09:26:01.193Z,13.52
2022-10-02T09:28:52.390Z,13.53
2022-10-02T09:31:41.192Z,13.59
2022-10-02T09:34:35.380Z,13.51
2022-10-02T09:37:28.430Z,13.61
2022-10-02T09:40:16.029Z,13.70
2022-10-02T09:43:08.938Z,13.77
2022-10-02T09:45:59.406Z,13.87
2022-10-02T09:48:39.306Z,13.82
2022-10-02T09:51:42.485Z,13.86
2022-10-02T09:54:30.517Z,13.78
2022-10-02T09:57:21.741Z,13.81
2022-10-02T10:00:11.559Z,13.82
2022-10-02T10:02:41.201Z,13.84
2022-10-02T10:05:36.342Z,13.80
2022-10-02T10:08:32.792Z,13.73
2022-10-02T10:11:20.845Z,13.83
2022-10-02T10:14:02.591Z,13.88
2022-10-02T10:16:48.102Z,13.95
2022-10-02T10:19:30.270Z,14.04
2022-10-02T10:22:17.999Z,14.10
2022-10-02T10:25:28.645Z,14.09
2022-10-02T10:28:51.528Z,14.19
2022-10-02T10:31:35.864Z,14.29
2022-10-02T10:34:47.476Z,14.30
2022-10-02T10:38:12.405Z,14.21
2022-10-02T10:40:52.844Z,14.19
2022-10-02T10:43:53.905Z,14.06
2022-10-02T10:46:54.494Z,14.07
2022-10-02T10:49:27.307Z,13.92
2022-10-02T10:52:33.192Z,13.83
2022-10-02T10:55:22.303Z,13.81
2022-10-02T10:57:52.319Z,13.77
2022-10-02T11:00:23.449Z,13.84
2022-10-02T11:03:26.454Z,13.94
2022-10-02T11:06:12.708Z,14.09
2022-10-02T11:08:45.886Z,14.22
2022-10-02T11:11:40.033Z,14.32
2022-10-02T11:14:45.882Z,14.35
2022-10-02T11:17:28.489Z,14.31
2022-10-02T11:20:33.406Z,14.43
2022-10-02T11:23:06.227Z,14.43
2022-10-02T11:26:08.171Z,14.43
2022-10-02T11:29:02.116Z,14.46
2022-10-02T11:31:53.850Z,14.35
2022-10-02T11:35:13.650Z,14.22
2022-10-02T11:38:19.092Z,14.19
2022-10-02T11:41:09.105Z,13.94
2022-10-02T11:43:44.099Z,13.84
2022-10-02T11:46:52.332Z,13.82
2022-10-02T11:49:27.632Z,13.62
2022-10-02T11:52:12.629Z,13.48
2022-10-02T11:54:59.694Z,13.27
2022-10-02T11:57:48.191Z,13.27
2022-10-02T12:00:53.468Z,13.32
2022-10-02T12:03:40.006Z,13.48
2022-10-02T12:06:44.753Z,13.58
2022-10-02T12:09:12.533Z,13.67
2022-10-02T12:12:07.053Z,13.80
2022-10-02T12:14:58.981Z,13.84
2022-10-02T12:17:57.460Z,14.02
2022-10-02T12:21:02.830Z,13.97
2022-10-02T12:24:04.189Z,14.04
2022-10-02T12:27:04.392Z,14.10
2022-10-02T12:29:43.816Z,14.07
2022-10-02T12:32:36.726Z,14.19
2022-10-02T12:35:36.403Z,14.20
2022-10-02T12:38:35.333Z,14.24
2022-10-02T12:41:38.840Z,14.25
2022-10-02T12:44:27.944Z,14.36
2022-10-02T12:47:18.838Z,14.19
2022-10-02T12:50:21.819Z,14.28
2022-10-02T12:53:26.488Z,14.41
2022-10-02T12:56:10.889Z,14.33
2022-10-02T12:58:59.918Z,14.48
2022-10-02T13:02:10.287Z,14.36
2022-10-02T13:05:06.314Z,14.50
2022-10-02T13:08:22.052Z,14.25
2022-10-02T13:11:10.651Z,14.21
2022-10-02T13:14:06.362Z,14.14
2022-10-02T13:16:54.438Z,13.90
2022-10-02T13:19:48.271Z,13.79
2022-10-02T13:22:34.485Z,13.74
2022-10-02T13:25:26.135Z,13.74
2022-10-02T13:28:07.732Z,13.94
2022-10-02T13:30:49.551Z,13.90
2022-10-02T13:33:44.568Z,13.80
2022-10-02T13:36:36.138Z,13.58
2022-10-02T13:40:06.144Z,13.62
2022-10-02T13:42:53.179Z,13.66
2022-10-02T13:45:42.391Z,13.80
2022-10-02T13:48:27.110Z,13.70
2022-10-02T13:51:06.746Z,13.74
2022-10-02T13:53:44.487Z,13.61
2022-10-02T13:56:36.529Z,13.62
2022-10-02T13:59:29.872Z,13.70
2022-10-02T14:02:29.574Z,13.57
2022-10-02T14:05:27.878Z,13.59
2022-10-02T14:08:19.858Z,13.88
2022-10-02T14:11:12.568Z,13.80
2022-10-02T14:14:09.702Z,13.67
2022-10-02T14:16:55.084Z,13.73
2022-10-02T14:19:46.601Z,13.66
2022-10-02T14:22:25.371Z,13.62
2022-10-02T14:25:35.327Z,13.72
2022-10-02T14:28:17.786Z,13.76
2022-10-02T14:31:07.956Z,13.77
2022-10-02T14:34:10.492Z,13.70
2022-10-02T14:37:06.527Z,13.76
2022-10-02T14:40:05.177Z,13.63
2022-10-02T14:42:52.085Z,13.45
2022-10-02T14:45:32.665Z,13.42
2022-10-02T14:48:36.355Z,13.52
2022-10-02T14:51:23.384Z,13.47
2022-10-02T14:54:05.985Z,13.61
2022-10-02T14:57:23.634Z,13.58
2022-10-02T15:00:22.003Z,13.63
2022-10-02T15:03:19.292Z,13.70
2022-10-02T15:06:25.400Z,13.59
2022-10-02T15:09:28.820Z,13.58
2022-10-02T15:12:18.256Z,13.72
2022-10-02T15:15:27.869Z,13.62
2022-10-02T15:18:01.542Z,13.70
2022-10-02T15:21:07.705Z,13.70
2022-10-02T15:23:46.097Z,13.68
2022-10-02T15:26:40.347Z,13.52
2022-10-02T15:29:32.552Z,13.37
2022-10-02T15:32:08.161Z,13.43
2022-10-02T15:35:15.089Z,13.37
2022-10-02T15:38:17.208Z,13.28
2022-10-02T15:40:59.350Z,13.31
2022-10-02T15:44:07.061Z,13.34
2022-10-02T15:46:56.730Z,13.30
2022-10-02T15:49:57.936Z,13.28
2022-10-02T15:52:44.384Z,13.29
2022-10-02T15:55:23.477Z,13.25
2022-10-02T15:58:17.231Z,13.42
2022-10-02T16:01:40.318Z,13.57
2022-10-02T16:04:39.995Z,13.52
2022-10-02T16:13:30.373Z,13.31
2022-10-02T16:16:06.441Z,13.28
2022-10-02T16:19:09.936Z,13.39
2022-10-02T16:21:59.138Z,13.46
2022-10-02T16:24:51.092Z,13.57
2022-10-02T16:27:38.189Z,13.48
2022-10-02T16:30:27.599Z,13.30
2022-10-02T16:33:21.463Z,13.23
2022-10-02T16:35:58.791Z,13.17
2022-10-02T16:38:37.635Z,13.17
2022-10-02T16:41:13.953Z,13.09
2022-10-02T16:43:56.734Z,13.04
2022-10-02T16:47:02.631Z,13.09
2022-10-02T16:49:43.704Z,13.17
2022-10-02T16:52:29.217Z,13.12
2022-10-02T16:58:33.168Z,13.03
2022-10-02T17:01:24.068Z,12.94
2022-10-02T17:04:09.748Z,12.93
2022-10-02T17:06:45.484Z,12.90
2022-10-02T17:09:26.666Z,12.90
2022-10-02T17:12:11.691Z,12.83
2022-10-02T17:18:07.451Z,12.68
2022-10-02T17:20:46.595Z,12.57
2022-10-02T17:27:23.410Z,12.46
2022-10-02T17:30:10.508Z,12.48
2022-10-02T17:32:52.248Z,12.53
2022-10-02T17:35:41.521Z,12.54
2022-10-02T17:38:47.535Z,12.51
2022-10-02T17:41:44.634Z,12.53
2022-10-02T17:44:47.852Z,12.53
2022-10-02T17:47:36.185Z,12.54
2022-10-02T17:53:51.214Z,12.55
2022-10-02T17:56:30.179Z,12.52
2022-10-02T18:02:50.419Z,12.39
2022-10-02T18:05:50.004Z,12.35
2022-10-02T18:08:41.529Z,12.34
2022-10-02T18:11:42.004Z,12.32
2022-10-02T18:14:34.278Z,12.31
2022-10-02T18:17:30.443Z,12.30
2022-10-02T18:20:29.660Z,12.27
2022-10-02T18:23:07.944Z,12.24
2022-10-02T18:29:23.324Z,12.09
2022-10-02T18:32:08.069Z,12.06
2022-10-02T18:34:58.425Z,12.05
2022-10-02T18:38:00.576Z,11.98
2022-10-02T18:40:55.997Z,12.01
2022-10-02T18:43:28.686Z,12.00
2022-10-02T18:46:01.939Z,11.99
2022-10-02T18:49:00.822Z,11.99
2022-10-02T18:51:54.892Z,11.99
2022-10-02T18:54:41.101Z,11.99
2022-10-02T18:57:08.323Z,11.94
2022-10-02T18:59:56.357Z,11.91
2022-10-02T19:02:47.705Z,11.86
2022-10-02T19:05:27.153Z,11.83
2022-10-02T19:08:02.768Z,11.86
2022-10-02T19:10:32.269Z,11.88
2022-10-02T19:13:17.622Z,11.86
2022-10-02T19:15:46.674Z,11.85
2022-10-02T19:18:23.421Z,11.86
2022-10-02T19:21:12.683Z,11.79
2022-10-02T19:23:52.306Z,11.77
2022-10-02T19:26:26.096Z,11.70
2022-10-02T19:29:03.943Z,11.67
2022-10-02T19:31:43.087Z,11.68
2022-10-02T19:34:24.777Z,11.62
2022-10-02T19:36:55.149Z,11.62
2022-10-02T19:39:36.957Z,11.60
2022-10-02T19:42:16.835Z,11.59
2022-10-02T19:44:49.456Z,11.54
2022-10-02T19:47:27.334Z,11.52
2022-10-02T19:52:51.692Z,11.53
2022-10-02T19:55:29.133Z,11.52
2022-10-02T19:58:14.264Z,11.49
2022-10-02T20:00:50.941Z,11.49
2022-10-02T20:03:27.089Z,11.52
2022-10-02T20:06:17.589Z,11.51
2022-10-02T20:08:51.349Z,11.50
2022-10-02T20:11:24.983Z,11.45
2022-10-02T20:14:28.102Z,11.44
2022-10-02T20:17:09.870Z,11.46
2022-10-02T20:19:42.396Z,11.44
2022-10-02T20:22:24.108Z,11.51
2022-10-02T20:28:40.305Z,11.46
2022-10-02T20:31:19.189Z,11.45
2022-10-02T20:33:53.867Z,11.45
2022-10-02T20:36:29.158Z,11.38
2022-10-02T20:39:07.257Z,11.30
2022-10-02T20:42:03.623Z,11.26
2022-10-02T20:44:36.551Z,11.23
2022-10-02T20:47:39.213Z,11.20
2022-10-02T20:50:40.523Z,11.21
2022-10-02T20:53:25.883Z,11.18
2022-10-02T20:56:22.095Z,11.19
2022-10-02T20:59:01.247Z,11.19
2022-10-02T21:02:07.982Z,11.21
2022-10-02T21:04:40.162Z,11.17
2022-10-02T21:07:15.902Z,11.14
2022-10-02T21:10:10.583Z,11.19
2022-10-02T21:12:50.242Z,11.15
2022-10-02T21:15:34.119Z,11.09
2022-10-02T21:18:12.755Z,11.04
2022-10-02T21:21:09.630Z,11.02
2022-10-02T21:26:50.387Z,10.97
2022-10-02T21:29:17.089Z,10.96
2022-10-02T21:32:05.074Z,10.92
2022-10-02T21:34:47.935Z,10.91
2022-10-02T21:37:37.913Z,10.87
2022-10-02T21:40:36.724Z,10.81
2022-10-02T21:43:31.063Z,10.79
2022-10-02T21:46:04.646Z,10.77
2022-10-02T21:48:53.070Z,10.71
2022-10-02T21:51:43.546Z,10.71
2022-10-02T21:54:38.527Z,10.72
2022-10-02T21:57:32.772Z,10.73
2022-10-02T22:00:13.846Z,10.76
2022-10-02T22:03:00.587Z,10.79
2022-10-02T22:06:05.419Z,10.78
2022-10-02T22:09:13.577Z,10.84
2022-10-02T22:11:58.332Z,10.82
2022-10-02T22:14:39.124Z,10.72
2022-10-02T22:17:25.975Z,10.69
2022-10-02T22:20:14.213Z,10.64
2022-10-02T22:23:14.735Z,10.62
2022-10-02T22:26:04.955Z,10.55
2022-10-02T22:28:44.262Z,10.48
2022-10-02T22:31:26.173Z,10.42
2022-10-02T22:34:05.205Z,10.36
2022-10-02T22:36:44.078Z,10.36
2022-10-02T22:39:26.149Z,10.34
2022-10-02T22:42:18.522Z,10.31
2022-10-02T22:45:01.595Z,10.28
2022-10-02T22:47:42.180Z,10.24
2022-10-02T22:50:13.471Z,10.23
2022-10-02T22:52:48.198Z,10.18
2022-10-02T22:55:18.682Z,10.12
2022-10-02T22:58:04.617Z,10.10
2022-10-02T23:00:52.174Z,10.00
2022-10-02T23:04:03.933Z,9.96
2022-10-02T23:06:43.221Z,9.94
2022-10-02T23:09:09.614Z,9.92
2022-10-02T23:11:58.443Z,9.91
2022-10-02T23:14:34.955Z,9.85
2022-10-02T23:17:18.486Z,9.85
2022-10-02T23:19:53.543Z,9.84
2022-10-02T23:22:35.245Z,9.80
2022-10-02T23:25:19.802Z,9.80
2022-10-02T23:27:52.478Z,9.83
2022-10-02T23:30:21.137Z,9.81
2022-10-02T23:33:06.300Z,9.76
2022-10-02T23:35:45.116Z,9.71
2022-10-02T23:38:19.340Z,9.68
2022-10-02T23:41:19.848Z,9.65
2022-10-02T23:43:55.819Z,9.65
2022-10-02T23:46:29.781Z,9.64
2022-10-02T23:48:56.576Z,9.56
2022-10-02T23:51:29.103Z,9.54
2022-10-02T23:53:58.527Z,9.48
2022-10-02T23:56:32.057Z,9.45
2022-10-02T23:59:26.135Z,9.48
